FAOR

O. R. Tambo International Airport

Airport
ICAO code
FAOR
IATA Code
JNB
Summary
ICAO Region
AFI
ICAO Territory
Location

Kempton Park, Gauteng

Serving
Johannesburg
Elevation
5558 ft
Coordinates
26° 8' 12" S , 28° 14' 28" E
KCC
Metar
Observation
FAOR 300900Z 01011G21KT 330V050 CAVOK 25/04 Q1023 NOSIG
Station
O.R. Tambo International Airport
Date/Time
2022-09-30 09:00:00
Wind direction
10°
Wind speed
11 kts
Lowest cloud amount
clouds and visibility OK
Temperature
25°C
Dew point
4°C
Humidity
25%
QNH
1023 hPa
Weather condition
n/a

International airport north east of Johannesburg, South Africa. Originally called Jan Smuts International Airport (former ICAO code FAJS), renamed Johannesburg International Airport in 1994 and then became O R Tambo International Airport in 2005 whereupon the ICAO code changed to FAOR.

Climatology

Sub-tropical highland climate (Köppen climate classification Cwb) characterised by mild, dry winters and warm, rainy summers.

SKYbrary Partners:

Safety knowledge contributed by: